Time;durP1;ratioP1;P1;durP2;ratioP2;P2;SDS_P1;SDS_P2;PMS_P1;PMS_P2;Temp;Humidity;BMP_temperature;BMP_pressure;BME280_temperature;BME280_humidity;BME280_pressure;Samples;Min_cycle;Max_cycle;Signal;HPM_P1;HPM_P2
2023/06/03 00:01:29;;;;;;;1.90;1.10;;;8.60;99.90;;;;;;5075302;28;20213;-87
2023/06/03 00:04:16;;;;;;;4.73;1.50;;;8.50;99.90;;;;;;5060177;28;20324;-86
2023/06/03 00:07:02;;;;;;;2.37;1.20;;;8.50;99.90;;;;;;5075872;28;20224;-87
2023/06/03 00:09:47;;;;;;;4.60;1.30;;;8.50;99.90;;;;;;5075171;28;20244;-86
2023/06/03 00:12:33;;;;;;;3.60;1.30;;;8.40;99.90;;;;;;5060020;28;20213;-87
2023/06/03 00:15:19;;;;;;;1.90;1.10;;;8.40;99.90;;;;;;5075172;28;20248;-86
2023/06/03 00:18:06;;;;;;;2.80;1.37;;;8.40;99.90;;;;;;5091095;28;20197;-85
2023/06/03 00:20:55;;;;;;;2.33;1.23;;;8.40;99.90;;;;;;5089113;28;20716;-83
2023/06/03 00:23:41;;;;;;;3.60;1.40;;;8.40;99.90;;;;;;5089135;28;20244;-84
2023/06/03 00:26:26;;;;;;;2.10;1.10;;;8.30;99.90;;;;;;5089722;28;20216;-84
2023/06/03 00:29:35;;;;;;;2.10;1.20;;;8.40;99.90;;;;;;5089089;28;20209;-85
2023/06/03 00:32:20;;;;;;;1.97;1.23;;;8.20;99.90;;;;;;5062427;28;20206;-87
2023/06/03 00:35:06;;;;;;;2.47;1.20;;;8.20;99.90;;;;;;5060375;28;20224;-88
2023/06/03 00:37:54;;;;;;;2.13;1.20;;;8.20;99.90;;;;;;5075492;28;20201;-88
2023/06/03 00:40:40;;;;;;;3.13;1.10;;;8.10;99.90;;;;;;5075450;28;20240;-88
2023/06/03 00:43:47;;;;;;;2.47;1.20;;;8.10;99.90;;;;;;5065756;28;20189;-87
2023/06/03 00:46:37;;;;;;;3.63;1.40;;;8.00;99.90;;;;;;5076687;28;20209;-88
2023/06/03 00:49:23;;;;;;;4.07;1.20;;;8.00;99.90;;;;;;5060811;28;20246;-89
2023/06/03 00:52:09;;;;;;;4.07;1.13;;;8.00;99.90;;;;;;5061040;28;20332;-87
2023/06/03 00:54:54;;;;;;;2.33;1.20;;;7.90;99.90;;;;;;5061477;28;20229;-88
2023/06/03 00:57:40;;;;;;;2.73;1.20;;;7.90;99.90;;;;;;5075731;28;20205;-87
2023/06/03 01:00:48;;;;;;;3.10;1.27;;;7.90;99.90;;;;;;5076830;28;20205;-87
2023/06/03 01:03:36;;;;;;;3.93;1.23;;;7.90;99.90;;;;;;5075474;28;20316;-88
2023/06/03 01:06:27;;;;;;;2.17;1.20;;;7.90;99.90;;;;;;5078167;28;20235;-87
2023/06/03 01:10:00;;;;;;;3.07;1.07;;;7.80;99.90;;;;;;5077919;28;20205;-88
2023/06/03 01:13:06;;;;;;;1.67;1.10;;;7.80;99.90;;;;;;5077245;28;20773;-88
2023/06/03 01:15:55;;;;;;;2.10;1.00;;;7.70;99.90;;;;;;5077997;28;20224;-85
2023/06/03 01:18:43;;;;;;;1.93;1.23;;;7.70;99.90;;;;;;5078511;28;20295;-88
2023/06/03 01:21:34;;;;;;;3.13;1.10;;;7.70;99.90;;;;;;5077266;28;20213;-86
2023/06/03 01:24:20;;;;;;;1.70;1.10;;;7.70;99.90;;;;;;5059453;28;20240;-86
2023/06/03 01:27:09;;;;;;;1.63;1.10;;;7.60;99.90;;;;;;5060492;28;20217;-87
2023/06/03 01:30:20;;;;;;;3.13;1.17;;;7.60;99.90;;;;;;5074393;28;20252;-88
2023/06/03 01:33:06;;;;;;;3.57;1.17;;;7.60;99.90;;;;;;5059200;28;20209;-88
2023/06/03 01:35:58;;;;;;;1.57;1.10;;;7.60;99.90;;;;;;5058959;28;20267;-85
2023/06/03 01:38:44;;;;;;;1.93;1.00;;;7.50;99.90;;;;;;5059358;28;20269;-87
2023/06/03 01:41:31;;;;;;;2.80;1.10;;;7.50;99.90;;;;;;5073625;28;20210;-89
2023/06/03 01:44:40;;;;;;;2.67;1.00;;;7.50;99.90;;;;;;5062214;28;20228;-87
2023/06/03 01:47:26;;;;;;;1.37;1.03;;;7.50;99.90;;;;;;5058628;28;20251;-85
2023/06/03 01:50:11;;;;;;;1.50;1.10;;;7.50;99.90;;;;;;5073347;28;20225;-86
2023/06/03 01:52:57;;;;;;;2.20;1.00;;;7.50;99.90;;;;;;5073424;28;20199;-85
2023/06/03 01:55:42;;;;;;;4.13;1.30;;;7.50;99.90;;;;;;5073639;28;20799;-86
2023/06/03 01:58:51;;;;;;;1.63;1.00;;;7.50;99.90;;;;;;5072915;28;20293;-85
2023/06/03 02:01:36;;;;;;;2.03;1.13;;;7.40;99.90;;;;;;5073260;28;20201;-86
2023/06/03 02:04:22;;;;;;;3.80;1.20;;;7.40;99.90;;;;;;5073554;28;20252;-85
2023/06/03 02:07:31;;;;;;;3.03;1.30;;;7.40;99.90;;;;;;5074006;28;20681;-86
2023/06/03 02:10:16;;;;;;;1.53;1.00;;;7.40;99.90;;;;;;5058737;28;20237;-86
2023/06/03 02:13:02;;;;;;;2.93;1.13;;;7.30;99.90;;;;;;5058536;28;20193;-85
2023/06/03 02:15:48;;;;;;;2.63;1.20;;;7.30;99.90;;;;;;5038002;28;20248;-85
2023/06/03 02:18:34;;;;;;;4.17;1.20;;;7.30;99.90;;;;;;5052973;28;20689;-85
2023/06/03 02:21:20;;;;;;;2.20;1.20;;;7.20;99.90;;;;;;5054388;28;20221;-84
2023/06/03 02:24:08;;;;;;;2.00;1.00;;;7.20;99.90;;;;;;5038835;28;20181;-84
2023/06/03 02:26:54;;;;;;;2.13;1.00;;;7.20;99.90;;;;;;5053640;28;20217;-83
2023/06/03 02:29:45;;;;;;;2.53;1.10;;;7.20;99.90;;;;;;5053488;28;20229;-84
2023/06/03 02:32:30;;;;;;;3.20;1.20;;;7.20;99.90;;;;;;5053423;28;20549;-83
2023/06/03 02:35:38;;;;;;;2.83;1.27;;;7.20;99.90;;;;;;5053341;28;20217;-86
2023/06/03 02:38:25;;;;;;;1.97;1.00;;;7.20;99.90;;;;;;5038548;28;20312;-87
2023/06/03 02:41:10;;;;;;;4.30;1.20;;;7.20;99.90;;;;;;5038915;28;20292;-85
2023/06/03 02:43:55;;;;;;;2.87;1.17;;;7.20;99.90;;;;;;5053725;28;20667;-85
2023/06/03 02:46:41;;;;;;;4.37;1.20;;;7.10;99.90;;;;;;5053435;28;20248;-85
2023/06/03 02:49:50;;;;;;;4.03;1.10;;;7.20;99.90;;;;;;5053991;28;20781;-86
2023/06/03 02:52:36;;;;;;;1.43;0.97;;;7.10;99.90;;;;;;5038053;28;20653;-86
2023/06/03 02:55:23;;;;;;;2.97;1.20;;;7.10;99.90;;;;;;5038495;28;20229;-86
2023/06/03 02:58:12;;;;;;;1.30;0.90;;;7.20;99.90;;;;;;5038289;28;20272;-86
2023/06/03 03:00:58;;;;;;;4.97;1.20;;;7.20;99.90;;;;;;5053611;28;20265;-85
2023/06/03 03:04:06;;;;;;;2.87;1.10;;;7.10;99.90;;;;;;5053385;28;20194;-84
2023/06/03 03:06:54;;;;;;;3.40;1.00;;;7.20;99.90;;;;;;5053222;28;20205;-86
2023/06/03 03:09:40;;;;;;;2.20;1.10;;;7.20;99.90;;;;;;5054420;28;20220;-84
2023/06/03 03:12:26;;;;;;;1.63;0.90;;;7.20;99.90;;;;;;5042209;28;21166;-87
2023/06/03 03:15:11;;;;;;;2.90;1.30;;;7.20;99.90;;;;;;5073144;28;20244;-84
2023/06/03 03:17:57;;;;;;;3.27;1.10;;;7.30;99.90;;;;;;5078398;28;20255;-84
2023/06/03 03:20:43;;;;;;;2.03;1.23;;;7.30;99.90;;;;;;5077272;28;20229;-85
2023/06/03 03:23:30;;;;;;;1.87;1.27;;;7.30;99.90;;;;;;5077703;28;20185;-84
2023/06/03 03:26:21;;;;;;;2.30;1.10;;;7.40;99.90;;;;;;5077729;28;20224;-84
2023/06/03 03:29:29;;;;;;;1.50;1.17;;;7.40;99.90;;;;;;5077880;28;20212;-84
2023/06/03 03:32:17;;;;;;;4.13;1.40;;;7.50;99.90;;;;;;5062181;28;20233;-84
2023/06/03 03:35:13;;;;;;;3.27;1.00;;;7.50;99.90;;;;;;5077275;28;20224;-85
2023/06/03 03:38:02;;;;;;;2.87;1.17;;;7.50;99.90;;;;;;5077363;28;20252;-84
2023/06/03 03:40:47;;;;;;;2.27;1.30;;;7.70;99.90;;;;;;5062234;28;20228;-84
2023/06/03 03:43:34;;;;;;;1.97;1.10;;;7.60;99.90;;;;;;5077161;28;20194;-86
2023/06/03 03:46:58;;;;;;;2.60;1.20;;;7.50;99.90;;;;;;5078116;28;20235;-85
2023/06/03 03:49:44;;;;;;;1.87;1.10;;;7.60;99.90;;;;;;5077601;28;20224;-86
2023/06/03 03:52:34;;;;;;;3.97;1.00;;;7.60;99.90;;;;;;5077179;28;20212;-84
2023/06/03 03:55:48;;;;;;;1.83;1.10;;;7.60;99.90;;;;;;5076286;28;20209;-84
2023/06/03 03:58:42;;;;;;;2.17;1.10;;;7.60;99.90;;;;;;5075956;28;20714;-85
2023/06/03 04:01:29;;;;;;;4.03;1.10;;;7.70;99.90;;;;;;5076156;28;20197;-85
2023/06/03 04:04:43;;;;;;;2.80;1.50;;;7.80;99.90;;;;;;5060978;28;20343;-84
2023/06/03 04:07:36;;;;;;;1.93;1.10;;;7.80;99.90;;;;;;5061073;28;20271;-85
2023/06/03 04:10:23;;;;;;;3.43;1.30;;;7.90;99.90;;;;;;5075977;28;20226;-86
2023/06/03 04:13:09;;;;;;;3.60;1.60;;;7.90;99.90;;;;;;5076504;28;20217;-85
2023/06/03 04:16:00;;;;;;;3.27;1.30;;;8.10;99.90;;;;;;5054720;28;20217;-85
2023/06/03 04:18:46;;;;;;;2.80;1.20;;;8.20;99.90;;;;;;5054629;28;20206;-86
2023/06/03 04:21:37;;;;;;;3.87;1.20;;;8.20;99.90;;;;;;5055164;28;20202;-87
2023/06/03 04:24:24;;;;;;;2.73;1.43;;;8.30;99.90;;;;;;5055329;28;20309;-86
2023/06/03 04:27:10;;;;;;;1.87;1.20;;;8.30;99.90;;;;;;5055385;28;20344;-87
2023/06/03 04:30:18;;;;;;;1.80;1.20;;;8.40;99.90;;;;;;5055517;28;20241;-87
2023/06/03 04:33:04;;;;;;;3.80;1.27;;;8.60;99.90;;;;;;5055536;28;20310;-86
2023/06/03 04:35:51;;;;;;;1.90;1.20;;;8.50;99.90;;;;;;5054974;28;20245;-85
2023/06/03 04:38:36;;;;;;;5.73;1.17;;;8.70;99.90;;;;;;5054313;28;20223;-84
2023/06/03 04:41:45;;;;;;;2.00;1.20;;;8.80;99.90;;;;;;5055389;28;20285;-85
2023/06/03 04:44:31;;;;;;;3.90;1.30;;;8.80;99.90;;;;;;5054797;28;20382;-85
2023/06/03 04:47:17;;;;;;;1.80;1.07;;;8.80;99.90;;;;;;5055086;28;20285;-86
2023/06/03 04:50:27;;;;;;;2.83;1.30;;;8.90;99.90;;;;;;5054806;28;20243;-86
2023/06/03 04:53:14;;;;;;;4.13;1.20;;;8.80;99.90;;;;;;5054642;28;20210;-85
2023/06/03 04:56:02;;;;;;;2.63;1.10;;;8.90;99.90;;;;;;5054423;28;20226;-85
2023/06/03 04:58:48;;;;;;;3.07;1.30;;;9.00;99.90;;;;;;5053631;28;20705;-86
2023/06/03 05:01:36;;;;;;;2.93;1.40;;;9.00;99.90;;;;;;5053623;28;20679;-85
2023/06/03 05:04:23;;;;;;;2.83;1.27;;;9.20;99.90;;;;;;5054575;28;20558;-85
2023/06/03 05:07:10;;;;;;;4.10;1.30;;;9.10;99.90;;;;;;5054468;28;20279;-84
2023/06/03 05:09:55;;;;;;;4.13;1.50;;;9.10;99.90;;;;;;5053430;28;20348;-85
2023/06/03 05:12:41;;;;;;;1.67;1.20;;;9.30;99.90;;;;;;5054290;28;20888;-86
2023/06/03 05:15:26;;;;;;;1.90;1.10;;;9.30;99.90;;;;;;5071829;28;20286;-86
2023/06/03 05:18:12;;;;;;;3.23;1.30;;;9.40;99.90;;;;;;5074087;28;20213;-82
2023/06/03 05:20:57;;;;;;;2.27;1.30;;;9.60;99.90;;;;;;5074122;28;20220;-82
2023/06/03 05:24:06;;;;;;;3.47;1.30;;;9.60;99.90;;;;;;5074277;28;20178;-81
2023/06/03 05:26:52;;;;;;;6.23;1.70;;;9.80;99.90;;;;;;5075249;28;20569;-81
2023/06/03 05:29:37;;;;;;;5.63;1.40;;;9.90;99.90;;;;;;5074447;28;20241;-81
2023/06/03 05:32:23;;;;;;;4.60;1.80;;;10.00;99.90;;;;;;5072866;28;20589;-81
2023/06/03 05:35:09;;;;;;;4.90;1.60;;;9.90;99.90;;;;;;5058666;28;20331;-81
2023/06/03 05:37:54;;;;;;;4.60;1.53;;;9.90;99.90;;;;;;5059665;28;20189;-82
2023/06/03 05:40:40;;;;;;;4.07;1.43;;;10.00;99.90;;;;;;5074884;28;20229;-81
2023/06/03 05:43:25;;;;;;;3.43;1.30;;;9.90;99.90;;;;;;5073680;28;20206;-81
2023/06/03 05:46:11;;;;;;;3.73;1.50;;;10.00;99.90;;;;;;5073883;28;20340;-84
2023/06/03 05:48:56;;;;;;;5.20;1.40;;;10.20;99.90;;;;;;5073540;28;20201;-82
2023/06/03 05:51:42;;;;;;;3.13;1.50;;;10.30;99.90;;;;;;5073291;28;20710;-81
2023/06/03 05:54:50;;;;;;;2.43;1.40;;;10.30;99.90;;;;;;5073465;28;20289;-81
2023/06/03 05:57:39;;;;;;;2.47;1.10;;;10.50;99.90;;;;;;5058383;28;20234;-81
2023/06/03 06:00:24;;;;;;;3.13;1.10;;;10.60;99.90;;;;;;5073858;28;20264;-81
2023/06/03 06:03:10;;;;;;;3.07;1.50;;;10.70;99.90;;;;;;5079141;28;20209;-81
2023/06/03 06:05:58;;;;;;;2.43;1.40;;;10.80;99.90;;;;;;5063376;28;20230;-82
2023/06/03 06:08:44;;;;;;;4.23;1.43;;;10.90;99.90;;;;;;5063276;28;20213;-81
2023/06/03 06:11:30;;;;;;;4.00;1.67;;;10.90;99.90;;;;;;5078575;28;20700;-81
2023/06/03 06:14:16;;;;;;;4.57;1.40;;;10.80;99.90;;;;;;5078669;28;20279;-81
2023/06/03 06:17:02;;;;;;;3.00;1.17;;;11.00;99.90;;;;;;5078898;28;20243;-80
2023/06/03 06:19:47;;;;;;;4.80;1.13;;;11.10;99.90;;;;;;5076060;28;20221;-80
2023/06/03 06:22:33;;;;;;;2.27;1.20;;;11.30;99.90;;;;;;5073274;28;20221;-82
2023/06/03 06:25:19;;;;;;;3.43;1.50;;;11.30;99.90;;;;;;5057927;28;20216;-82
2023/06/03 06:28:05;;;;;;;3.50;1.20;;;11.40;99.90;;;;;;5073085;28;20200;-82
2023/06/03 06:31:00;;;;;;;5.10;1.40;;;11.50;99.90;;;;;;5072765;28;20264;-81
2023/06/03 06:33:47;;;;;;;2.20;1.17;;;11.60;99.90;;;;;;5073037;28;20271;-80
2023/06/03 06:36:44;;;;;;;2.40;1.20;;;11.70;99.90;;;;;;5058108;28;20217;-82
2023/06/03 06:39:33;;;;;;;3.50;1.40;;;11.60;99.90;;;;;;5057684;28;20569;-82
2023/06/03 06:42:33;;;;;;;2.20;1.07;;;11.60;99.90;;;;;;5072863;28;20210;-82
2023/06/03 06:45:41;;;;;;;3.93;1.40;;;11.70;99.90;;;;;;5072969;28;20694;-81
2023/06/03 06:48:28;;;;;;;3.10;1.27;;;11.70;99.90;;;;;;5072706;28;20312;-79
2023/06/03 06:51:14;;;;;;;3.43;1.20;;;11.80;99.90;;;;;;5072519;28;20225;-80
2023/06/03 06:53:59;;;;;;;2.60;1.27;;;11.90;99.90;;;;;;5057509;28;20239;-83
2023/06/03 06:56:45;;;;;;;3.90;1.10;;;12.00;99.90;;;;;;5072717;28;20205;-82
2023/06/03 06:59:32;;;;;;;3.27;1.10;;;12.00;99.90;;;;;;5057327;28;20224;-82
2023/06/03 07:02:17;;;;;;;2.60;1.10;;;12.20;99.90;;;;;;5072568;28;20263;-82
2023/06/03 07:05:03;;;;;;;2.40;1.07;;;12.40;99.90;;;;;;5072414;28;20352;-81
2023/06/03 07:07:49;;;;;;;1.67;0.90;;;12.30;99.90;;;;;;5072539;28;20287;-81
2023/06/03 07:10:35;;;;;;;2.60;0.93;;;12.30;99.90;;;;;;5072343;28;20213;-82
2023/06/03 07:13:21;;;;;;;1.80;0.87;;;12.40;99.90;;;;;;5072249;28;20237;-81
2023/06/03 07:16:06;;;;;;;3.60;1.00;;;12.50;99.90;;;;;;5057205;28;20225;-81
2023/06/03 07:18:53;;;;;;;1.33;0.90;;;12.80;99.90;;;;;;5057009;28;20200;-83
2023/06/03 07:21:39;;;;;;;3.33;0.90;;;12.90;99.90;;;;;;5057498;28;20208;-82
2023/06/03 07:24:25;;;;;;;1.10;0.80;;;12.90;99.90;;;;;;5072141;28;20224;-82
2023/06/03 07:27:14;;;;;;;3.40;1.00;;;12.90;99.90;;;;;;5072412;28;20200;-82
2023/06/03 07:30:00;;;;;;;1.47;0.87;;;12.90;99.90;;;;;;5056930;28;20596;-81
2023/06/03 07:33:29;;;;;;;2.60;1.00;;;12.90;99.90;;;;;;5072076;28;20784;-83
2023/06/03 07:36:15;;;;;;;4.20;0.90;;;13.00;99.90;;;;;;5072316;28;20612;-82
2023/06/03 07:39:14;;;;;;;3.83;0.90;;;13.20;99.90;;;;;;5072262;28;20204;-82
2023/06/03 07:42:00;;;;;;;3.53;0.90;;;13.50;99.90;;;;;;5072206;28;20664;-82
2023/06/03 07:44:48;;;;;;;1.70;0.77;;;13.70;99.90;;;;;;5072122;28;20292;-81
2023/06/03 07:47:34;;;;;;;4.50;1.00;;;13.70;99.90;;;;;;5057222;28;20189;-81
2023/06/03 07:50:25;;;;;;;1.50;0.70;;;13.80;99.90;;;;;;5071945;28;20229;-83
2023/06/03 07:53:16;;;;;;;1.70;0.60;;;13.80;99.90;;;;;;5072036;28;20256;-82
2023/06/03 07:56:09;;;;;;;2.77;1.00;;;13.90;99.90;;;;;;5073950;28;20772;-82
2023/06/03 07:59:18;;;;;;;2.20;0.80;;;14.10;99.90;;;;;;5075810;28;20207;-83
2023/06/03 08:02:09;;;;;;;2.27;0.87;;;14.30;99.90;;;;;;5075578;28;20680;-82
2023/06/03 08:04:59;;;;;;;2.67;0.70;;;14.40;99.90;;;;;;5075446;28;20221;-81
2023/06/03 08:07:45;;;;;;;3.00;0.67;;;14.50;99.90;;;;;;5076050;28;20223;-81
2023/06/03 08:10:34;;;;;;;1.30;0.70;;;14.50;99.90;;;;;;5075388;28;20590;-82
2023/06/03 08:13:43;;;;;;;1.67;0.77;;;14.60;99.90;;;;;;5075443;28;20308;-82
2023/06/03 08:16:28;;;;;;;2.27;1.00;;;14.90;99.90;;;;;;5075757;28;20201;-81
2023/06/03 08:19:16;;;;;;;1.80;0.90;;;14.90;99.90;;;;;;5075095;28;20804;-80
2023/06/03 08:22:06;;;;;;;1.67;0.90;;;15.40;99.90;;;;;;5059889;28;20247;-83
2023/06/03 08:24:52;;;;;;;1.47;0.70;;;16.20;99.90;;;;;;5075030;28;20240;-83
2023/06/03 08:27:37;;;;;;;2.83;1.00;;;17.10;99.90;;;;;;5060166;28;20197;-83
2023/06/03 08:30:23;;;;;;;3.50;0.97;;;18.00;98.90;;;;;;5074946;28;20275;-80
2023/06/03 08:33:09;;;;;;;2.40;0.80;;;18.10;95.90;;;;;;5075170;28;20313;-80
2023/06/03 08:35:54;;;;;;;2.77;1.10;;;18.30;94.00;;;;;;5075243;28;20756;-82
2023/06/03 08:38:40;;;;;;;2.40;1.20;;;18.80;92.80;;;;;;5074898;28;20216;-81
2023/06/03 08:41:29;;;;;;;3.83;0.80;;;19.10;90.10;;;;;;5074780;28;20197;-81
2023/06/03 08:44:26;;;;;;;1.50;0.90;;;18.70;86.90;;;;;;5074823;28;20805;-80
2023/06/03 08:47:13;;;;;;;2.57;0.83;;;18.50;88.50;;;;;;5074718;28;20580;-81
2023/06/03 08:50:10;;;;;;;2.90;0.90;;;18.70;90.40;;;;;;5074509;28;20348;-81
2023/06/03 08:52:59;;;;;;;2.10;0.70;;;19.00;88.50;;;;;;5074564;28;20355;-79
2023/06/03 08:55:50;;;;;;;1.00;0.70;;;19.80;87.00;;;;;;5059289;28;20220;-82
2023/06/03 08:58:43;;;;;;;2.95;1.00;;;20.30;81.80;;;;;;5059102;28;20221;-81
2023/06/03 09:01:37;;;;;;;4.67;1.63;;;20.40;79.60;;;;;;5074319;28;20221;-81
2023/06/03 09:04:24;;;;;;;2.80;1.00;;;20.40;75.90;;;;;;5059119;28;20613;-82
2023/06/03 09:07:11;;;;;;;2.67;0.75;;;20.50;78.60;;;;;;5074155;28;20270;-84
2023/06/03 09:09:57;;;;;;;2.42;0.98;;;21.10;76.80;;;;;;5059075;28;20225;-82
2023/06/03 09:12:47;;;;;;;1.10;0.90;;;20.90;74.20;;;;;;5074091;28;20221;-78
2023/06/03 09:15:55;;;;;;;2.55;0.90;;;21.00;72.60;;;;;;5074399;28;20762;-83
2023/06/03 09:18:43;;;;;;;1.77;0.90;;;21.00;71.10;;;;;;5073866;28;20232;-82
2023/06/03 09:21:29;;;;;;;3.97;1.20;;;21.00;72.00;;;;;;5074006;28;20279;-81
2023/06/03 09:24:14;;;;;;;2.43;1.20;;;21.20;71.40;;;;;;5073970;28;20585;-79
2023/06/03 09:27:00;;;;;;;2.20;0.90;;;21.40;71.60;;;;;;5074133;28;20200;-83
2023/06/03 09:29:46;;;;;;;1.73;0.90;;;21.60;69.80;;;;;;5058723;28;20222;-83
2023/06/03 09:32:37;;;;;;;2.78;0.90;;;21.80;71.30;;;;;;5073677;28;20701;-82
2023/06/03 09:35:23;;;;;;;1.23;0.60;;;21.60;68.50;;;;;;5058725;28;20838;-82
2023/06/03 09:38:08;;;;;;;1.92;0.80;;;21.80;66.70;;;;;;5073708;28;20691;-81
2023/06/03 09:40:54;;;;;;;2.88;0.70;;;21.90;67.70;;;;;;5058655;28;20700;-80
2023/06/03 09:44:05;;;;;;;0.77;0.75;;;22.10;66.50;;;;;;5075287;28;20247;-80
2023/06/03 09:46:51;;;;;;;1.92;0.82;;;22.20;64.90;;;;;;5074155;28;20193;-82
2023/06/03 09:49:37;;;;;;;2.77;0.67;;;22.50;64.10;;;;;;5058399;28;20708;-83
2023/06/03 09:52:34;;;;;;;1.95;0.77;;;22.60;64.40;;;;;;5074416;28;20590;-84
2023/06/03 09:55:22;;;;;;;2.93;0.73;;;22.50;63.40;;;;;;5075186;28;20225;-83
2023/06/03 09:58:30;;;;;;;2.92;0.75;;;22.80;66.40;;;;;;5062153;28;20687;-82
2023/06/03 10:01:18;;;;;;;1.33;0.73;;;23.20;63.80;;;;;;5058799;28;20213;-82
2023/06/03 10:04:05;;;;;;;5.77;1.50;;;23.10;64.00;;;;;;5073241;28;20194;-81
2023/06/03 10:07:11;;;;;;;2.22;0.80;;;22.90;64.00;;;;;;5073572;28;20189;-80
2023/06/03 10:10:05;;;;;;;1.40;0.80;;;22.60;61.60;;;;;;5057985;28;20221;-82
2023/06/03 10:12:51;;;;;;;1.27;0.70;;;21.90;61.40;;;;;;5073164;28;20696;-80
2023/06/03 10:15:38;;;;;;;2.07;0.70;;;21.90;62.60;;;;;;5057890;28;20299;-81
2023/06/03 10:18:40;;;;;;;2.20;0.80;;;22.30;63.60;;;;;;5072521;28;20217;-81
2023/06/03 10:21:28;;;;;;;1.38;0.80;;;22.80;60.00;;;;;;5072938;28;20204;-82
2023/06/03 10:24:14;;;;;;;1.05;0.70;;;23.20;60.50;;;;;;5057799;28;20233;-81
2023/06/03 10:27:03;;;;;;;1.30;0.80;;;23.50;58.00;;;;;;5058406;28;20783;-81
2023/06/03 10:29:53;;;;;;;1.95;0.80;;;24.00;57.20;;;;;;5073245;28;20584;-82
2023/06/03 10:32:43;;;;;;;2.67;0.85;;;24.10;56.60;;;;;;5072963;28;20309;-83
2023/06/03 10:35:32;;;;;;;2.05;0.90;;;23.30;57.40;;;;;;5058062;28;20298;-82
2023/06/03 10:38:18;;;;;;;1.67;0.73;;;23.10;59.10;;;;;;5073219;28;20217;-82
2023/06/03 10:41:03;;;;;;;1.73;0.80;;;23.40;58.40;;;;;;5073072;28;20221;-84
2023/06/03 10:43:50;;;;;;;0.85;0.75;;;24.10;58.00;;;;;;5057891;28;20197;-82
2023/06/03 10:46:41;;;;;;;1.70;0.85;;;24.00;55.60;;;;;;5072957;28;20209;-82
2023/06/03 10:49:33;;;;;;;1.63;0.70;;;23.10;56.00;;;;;;5072746;28;20220;-83
2023/06/03 10:52:27;;;;;;;5.60;0.95;;;22.80;57.90;;;;;;5057717;28;20236;-83
2023/06/03 10:55:46;;;;;;;2.33;1.02;;;23.00;57.60;;;;;;5072702;28;20225;-84
2023/06/03 10:58:32;;;;;;;2.55;0.80;;;23.10;57.10;;;;;;5072923;28;20205;-83
2023/06/03 11:01:18;;;;;;;2.63;0.85;;;24.20;56.90;;;;;;5073265;28;20201;-84
2023/06/03 11:04:06;;;;;;;3.47;0.80;;;24.60;54.60;;;;;;5058708;28;20198;-83
2023/06/03 11:06:52;;;;;;;1.25;0.60;;;25.00;53.70;;;;;;5073435;28;20244;-78
2023/06/03 11:09:40;;;;;;;1.33;0.60;;;25.10;54.20;;;;;;5073982;28;20240;-81
2023/06/03 11:12:48;;;;;;;3.92;0.68;;;25.50;54.20;;;;;;5058311;28;20364;-80
2023/06/03 11:15:59;;;;;;;1.45;0.70;;;26.10;52.50;;;;;;5073083;28;20248;-81
2023/06/03 11:18:45;;;;;;;2.03;0.70;;;26.30;52.10;;;;;;5072805;28;20193;-83
2023/06/03 11:21:47;;;;;;;2.38;0.60;;;26.80;51.30;;;;;;5058141;28;20201;-83
2023/06/03 11:24:38;;;;;;;1.10;0.70;;;27.00;50.20;;;;;;5073363;28;20275;-85
2023/06/03 11:27:25;;;;;;;2.63;0.60;;;26.50;49.40;;;;;;5074015;28;20197;-84
2023/06/03 11:30:11;;;;;;;3.30;0.90;;;26.30;50.70;;;;;;5075055;28;20240;-83
2023/06/03 11:33:09;;;;;;;1.23;0.52;;;26.70;49.10;;;;;;5078540;28;20752;-85
2023/06/03 11:35:55;;;;;;;2.25;0.68;;;27.20;48.20;;;;;;5079014;28;20229;-79
2023/06/03 11:39:00;;;;;;;1.02;0.70;;;26.90;48.10;;;;;;5076300;28;20239;-78
2023/06/03 11:42:09;;;;;;;2.55;0.70;;;27.30;47.00;;;;;;5061196;28;20224;-77
2023/06/03 11:45:25;;;;;;;2.03;0.82;;;27.50;45.50;;;;;;5075954;28;20225;-79
2023/06/03 11:48:11;;;;;;;1.25;0.50;;;27.10;45.60;;;;;;5075627;28;20435;-83
2023/06/03 11:50:57;;;;;;;2.63;0.65;;;27.60;46.60;;;;;;5060598;28;20271;-78
2023/06/03 11:53:43;;;;;;;3.55;0.90;;;27.90;46.70;;;;;;5076068;28;20213;-85
2023/06/03 11:56:28;;;;;;;1.98;0.60;;;28.00;45.60;;;;;;5076179;28;20605;-84
2023/06/03 11:59:17;;;;;;;1.52;0.73;;;28.30;45.10;;;;;;5075763;28;20371;-80
2023/06/03 12:02:05;;;;;;;1.92;0.60;;;28.70;44.80;;;;;;5075665;28;20181;-79
2023/06/03 12:04:50;;;;;;;2.58;0.73;;;29.00;44.30;;;;;;5075419;28;20226;-80
2023/06/03 12:07:38;;;;;;;1.48;0.70;;;28.40;43.20;;;;;;5075957;28;20840;-80
2023/06/03 12:10:23;;;;;;;0.90;0.50;;;28.20;45.90;;;;;;5075452;28;20225;-81
2023/06/03 12:13:42;;;;;;;1.08;0.60;;;28.60;44.60;;;;;;5075466;28;20209;-81
2023/06/03 12:16:34;;;;;;;2.08;0.60;;;28.70;44.30;;;;;;5075254;28;20209;-81
2023/06/03 12:19:20;;;;;;;1.00;0.60;;;27.70;44.70;;;;;;5075224;28;20226;-79
2023/06/03 12:22:06;;;;;;;2.22;0.70;;;27.60;44.80;;;;;;5075237;28;20213;-80
2023/06/03 12:24:52;;;;;;;1.65;0.95;;;27.80;44.80;;;;;;5060026;28;20283;-80
2023/06/03 12:28:22;;;;;;;1.42;0.73;;;27.70;43.40;;;;;;5063972;28;20177;-80
2023/06/03 12:31:15;;;;;;;1.08;0.50;;;27.70;45.10;;;;;;5075412;28;20311;-79
2023/06/03 12:34:02;;;;;;;1.20;0.65;;;28.00;44.20;;;;;;5075411;28;20582;-79
2023/06/03 12:37:12;;;;;;;2.10;0.60;;;28.20;42.80;;;;;;5075384;28;20198;-76
2023/06/03 12:39:58;;;;;;;1.90;0.63;;;28.30;44.50;;;;;;5059644;28;20217;-77
2023/06/03 12:42:44;;;;;;;4.32;0.70;;;29.10;44.50;;;;;;5074569;28;20297;-78
2023/06/03 12:45:30;;;;;;;2.10;0.60;;;29.30;43.10;;;;;;5059805;28;20275;-76
2023/06/03 12:48:36;;;;;;;2.95;0.63;;;29.60;42.70;;;;;;5074648;28;20728;-75
2023/06/03 12:51:29;;;;;;;2.88;0.70;;;28.80;42.00;;;;;;5074515;28;20564;-75
2023/06/03 12:54:16;;;;;;;0.68;0.57;;;27.70;44.50;;;;;;5074699;28;20276;-75
2023/06/03 12:57:01;;;;;;;4.75;0.73;;;27.40;48.30;;;;;;5074503;28;20252;-80
2023/06/03 13:00:11;;;;;;;1.48;0.63;;;27.60;49.60;;;;;;5059295;28;20217;-78
2023/06/03 13:02:57;;;;;;;1.20;0.70;;;27.60;51.50;;;;;;5059244;28;20224;-78
2023/06/03 13:05:43;;;;;;;2.20;0.60;;;27.60;49.30;;;;;;5085857;28;20241;-77
2023/06/03 13:08:32;;;;;;;3.67;0.70;;;27.00;45.70;;;;;;5086055;28;20201;-77
2023/06/03 13:11:18;;;;;;;1.25;0.60;;;26.80;47.70;;;;;;5060391;28;20206;-78
2023/06/03 13:14:04;;;;;;;1.98;0.90;;;26.90;47.50;;;;;;5074150;28;20457;-79
2023/06/03 13:16:50;;;;;;;1.08;0.68;;;27.60;47.40;;;;;;5074068;28;20313;-76
2023/06/03 13:19:36;;;;;;;2.53;0.70;;;27.90;46.30;;;;;;5074011;28;20589;-78
2023/06/03 13:22:25;;;;;;;1.70;0.50;;;26.90;46.60;;;;;;5073967;28;20201;-80
2023/06/03 13:25:11;;;;;;;2.35;0.55;;;27.30;47.40;;;;;;5073907;28;20597;-81
2023/06/03 13:27:56;;;;;;;1.15;0.60;;;27.70;47.90;;;;;;5074756;28;20243;-80
2023/06/03 13:30:42;;;;;;;2.45;1.30;;;27.80;45.10;;;;;;5058852;28;20291;-80
2023/06/03 13:33:28;;;;;;;1.48;0.88;;;27.80;44.50;;;;;;5074045;28;20243;-84
2023/06/03 13:36:14;;;;;;;2.78;1.20;;;28.30;46.70;;;;;;5074352;28;20221;-86
2023/06/03 13:38:59;;;;;;;2.30;1.13;;;28.50;44.90;;;;;;5073976;28;20692;-83
2023/06/03 13:41:45;;;;;;;3.03;0.75;;;28.60;44.50;;;;;;5044901;28;20217;-85
2023/06/03 13:44:31;;;;;;;1.23;0.80;;;28.40;44.60;;;;;;5059022;28;20225;-78
2023/06/03 13:47:16;;;;;;;1.20;0.70;;;28.40;42.70;;;;;;5073922;28;20209;-78
2023/06/03 13:50:03;;;;;;;2.58;0.85;;;28.80;43.20;;;;;;5073965;28;20225;-79
2023/06/03 13:52:49;;;;;;;3.72;1.80;;;28.80;43.10;;;;;;5073322;28;20264;-76
2023/06/03 13:55:34;;;;;;;2.50;0.65;;;28.60;45.80;;;;;;5058489;28;20355;-82
2023/06/03 13:58:20;;;;;;;2.28;1.40;;;29.00;44.30;;;;;;5073779;28;21193;-81
2023/06/03 14:01:28;;;;;;;2.70;0.90;;;29.50;44.60;;;;;;5074207;28;20182;-85
2023/06/03 14:04:15;;;;;;;1.65;0.60;;;29.40;43.00;;;;;;5073732;28;20261;-80
2023/06/03 14:07:01;;;;;;;1.65;0.80;;;29.30;43.60;;;;;;5059002;28;20252;-79
2023/06/03 14:09:47;;;;;;;2.65;0.95;;;29.30;42.10;;;;;;5058601;28;20216;-82
2023/06/03 14:12:33;;;;;;;2.15;0.77;;;29.20;42.60;;;;;;5073151;28;21126;-81
2023/06/03 14:15:19;;;;;;;2.00;0.95;;;29.40;41.50;;;;;;5072970;28;20291;-80
2023/06/03 14:18:05;;;;;;;5.72;2.30;;;29.40;40.50;;;;;;5073113;28;20661;-80
2023/06/03 14:20:51;;;;;;;1.50;0.80;;;29.40;41.50;;;;;;5072655;28;20220;-81
2023/06/03 14:24:02;;;;;;;1.63;0.50;;;29.50;40.80;;;;;;5061649;28;20173;-81
2023/06/03 14:26:48;;;;;;;1.83;0.50;;;29.30;40.60;;;;;;5057942;28;20198;-81
2023/06/03 14:29:33;;;;;;;1.60;0.47;;;29.20;40.70;;;;;;5072775;28;20256;-83
2023/06/03 14:32:20;;;;;;;2.75;0.60;;;29.50;41.20;;;;;;5072873;28;20209;-83
2023/06/03 14:35:07;;;;;;;1.50;0.70;;;29.80;41.20;;;;;;5072869;28;20716;-82
2023/06/03 14:37:53;;;;;;;1.05;0.70;;;29.60;41.70;;;;;;5072652;28;20293;-83
2023/06/03 14:40:39;;;;;;;3.33;0.70;;;29.40;41.00;;;;;;5057612;28;20327;-82
2023/06/03 14:43:25;;;;;;;1.38;0.65;;;29.70;41.10;;;;;;5072573;28;20283;-83
2023/06/03 14:46:32;;;;;;;3.03;0.65;;;29.80;42.60;;;;;;5061752;28;20692;-81
2023/06/03 14:49:19;;;;;;;2.55;0.80;;;29.50;39.80;;;;;;5061910;28;20217;-82
2023/06/03 14:52:05;;;;;;;1.23;0.60;;;28.20;40.80;;;;;;5073126;28;20331;-80